Terminal Aerodrome Forecast
Issued by NWS

Home | Current Version | Previous Version | Text Only | Print | Product List | Glossary On
Versions: 1 2 3 4 5 6 7 8 9 10 11 12 13
000
FTUS43 KJKL 230500
TAFSJS
TAF
KSJS 230532Z 2306/2406 00000KT 2SM BR SCT002
     FM230700 00000KT 3/4SM BR BKN002
     FM231100 00000KT 3SM BR SCT002
     FM231200 VRB03KT P6SM SKC=

USA.gov is the U.S. government's official web portal to all federal, state and local government web resources and services.